sensor_id;sensor_type;location;lat;lon;timestamp;pressure;altitude;pressure_sealevel;temperature;humidity
70015;BME280;57358;51.094;6.760;2024-01-15T00:04:46;99740.17;;;1.65;100
70015;BME280;57358;51.094;6.760;2024-01-15T00:09:46;99739.59;;;1.61;100
70015;BME280;57358;51.094;6.760;2024-01-15T00:14:46;99734.64;;;1.49;100
70015;BME280;57358;51.094;6.760;2024-01-15T00:19:46;99776.48000000001;;;1.46;100
70015;BME280;57358;51.094;6.760;2024-01-15T00:24:46;99771.7;;;1.41;100
70015;BME280;57358;51.094;6.760;2024-01-15T00:29:46;99780.67;;;1.44;100
70015;BME280;57358;51.094;6.760;2024-01-15T00:34:46;99783.98;;;1.43;100
70015;BME280;57358;51.094;6.760;2024-01-15T00:39:46;99784.68000000001;;;1.37;100
70015;BME280;57358;51.094;6.760;2024-01-15T00:44:46;99787.25;;;1.33;100
70015;BME280;57358;51.094;6.760;2024-01-15T00:49:46;99789.22;;;1.34;100
70015;BME280;57358;51.094;6.760;2024-01-15T00:54:46;99799.15999999999;;;1.39;100
70015;BME280;57358;51.094;6.760;2024-01-15T00:59:46;99782.33;;;1.4;100
70015;BME280;57358;51.094;6.760;2024-01-15T01:04:47;99780.52;;;1.37;100
70015;BME280;57358;51.094;6.760;2024-01-15T01:09:46;99787.21;;;1.43;100
70015;BME280;57358;51.094;6.760;2024-01-15T01:14:46;99792.62999999999;;;1.43;100
70015;BME280;57358;51.094;6.760;2024-01-15T01:19:46;99790.11;;;1.43;100
70015;BME280;57358;51.094;6.760;2024-01-15T01:24:47;99796.75;;;1.43;100
70015;BME280;57358;51.094;6.760;2024-01-15T01:29:47;99790.64;;;1.49;100
70015;BME280;57358;51.094;6.760;2024-01-15T01:34:47;99788.64;;;1.5;100
70015;BME280;57358;51.094;6.760;2024-01-15T01:39:47;99790.81999999999;;;1.57;100
70015;BME280;57358;51.094;6.760;2024-01-15T01:44:47;99795.31;;;1.59;100
70015;BME280;57358;51.094;6.760;2024-01-15T01:49:47;99776.5;;;1.54;100
70015;BME280;57358;51.094;6.760;2024-01-15T01:54:47;99783.03;;;1.64;100
70015;BME280;57358;51.094;6.760;2024-01-15T01:59:47;99778.91;;;1.64;100
70015;BME280;57358;51.094;6.760;2024-01-15T02:04:47;99776.34000000001;;;1.58;100
70015;BME280;57358;51.094;6.760;2024-01-15T02:09:47;99799.06;;;1.68;100
70015;BME280;57358;51.094;6.760;2024-01-15T02:14:47;99805.02;;;1.75;100
70015;BME280;57358;51.094;6.760;2024-01-15T02:19:47;99778.25;;;1.62;100
70015;BME280;57358;51.094;6.760;2024-01-15T02:24:47;99799.22;;;1.82;100
70015;BME280;57358;51.094;6.760;2024-01-15T02:29:47;99786.25;;;1.83;100
70015;BME280;57358;51.094;6.760;2024-01-15T02:34:47;99759.84;;;1.61;100
70015;BME280;57358;51.094;6.760;2024-01-15T02:39:47;99792.19;;;1.85;100
70015;BME280;57358;51.094;6.760;2024-01-15T02:44:47;99781.81;;;1.88;100
70015;BME280;57358;51.094;6.760;2024-01-15T02:49:47;99765.99;;;1.75;100
70015;BME280;57358;51.094;6.760;2024-01-15T02:54:47;99783.18000000001;;;1.85;100
70015;BME280;57358;51.094;6.760;2024-01-15T02:59:47;99758.51;;;1.84;100
70015;BME280;57358;51.094;6.760;2024-01-15T03:04:47;99753.05;;;1.68;100
70015;BME280;57358;51.094;6.760;2024-01-15T03:09:47;99783.15;;;1.89;100
70015;BME280;57358;51.094;6.760;2024-01-15T03:14:47;99777.38;;;1.89;100
70015;BME280;57358;51.094;6.760;2024-01-15T03:19:47;99763.45;;;1.85;100
70015;BME280;57358;51.094;6.760;2024-01-15T03:24:47;99766.52;;;1.87;100
70015;BME280;57358;51.094;6.760;2024-01-15T03:29:47;99758.6;;;1.8;100
70015;BME280;57358;51.094;6.760;2024-01-15T03:34:47;99756.37000000001;;;1.71;100
70015;BME280;57358;51.094;6.760;2024-01-15T03:39:47;99772.28;;;1.86;100
70015;BME280;57358;51.094;6.760;2024-01-15T03:44:47;99768.57;;;1.82;100
70015;BME280;57358;51.094;6.760;2024-01-15T03:49:47;99744.4;;;1.64;100
70015;BME280;57358;51.094;6.760;2024-01-15T03:54:47;99749.7;;;1.82;100
70015;BME280;57358;51.094;6.760;2024-01-15T03:59:47;99748.19;;;1.85;100
70015;BME280;57358;51.094;6.760;2024-01-15T04:04:47;99748.25;;;1.88;100
70015;BME280;57358;51.094;6.760;2024-01-15T04:09:47;99739.76;;;1.79;100
70015;BME280;57358;51.094;6.760;2024-01-15T04:14:47;99737.34;;;1.92;100
70015;BME280;57358;51.094;6.760;2024-01-15T04:19:47;99726.31;;;1.84;100
70015;BME280;57358;51.094;6.760;2024-01-15T04:24:47;99713.31;;;1.85;100
70015;BME280;57358;51.094;6.760;2024-01-15T04:29:47;99722.13;;;1.92;100
70015;BME280;57358;51.094;6.760;2024-01-15T04:34:47;99705.06;;;1.82;100
70015;BME280;57358;51.094;6.760;2024-01-15T04:39:47;99706.34;;;1.89;100
70015;BME280;57358;51.094;6.760;2024-01-15T04:44:47;99700.08;;;1.92;100
70015;BME280;57358;51.094;6.760;2024-01-15T04:49:47;99702.34;;;1.94;100
70015;BME280;57358;51.094;6.760;2024-01-15T04:54:47;99692.56;;;1.96;100
70015;BME280;57358;51.094;6.760;2024-01-15T04:59:47;99692.44;;;1.97;100
70015;BME280;57358;51.094;6.760;2024-01-15T05:04:47;99695.43;;;1.97;100
70015;BME280;57358;51.094;6.760;2024-01-15T05:09:47;99691.52;;;2.03;100
70015;BME280;57358;51.094;6.760;2024-01-15T05:14:47;99685.94;;;2.02;100
70015;BME280;57358;51.094;6.760;2024-01-15T05:19:47;99658.23000000001;;;1.92;100
70015;BME280;57358;51.094;6.760;2024-01-15T05:24:47;99658.65;;;1.95;100
70015;BME280;57358;51.094;6.760;2024-01-15T05:29:47;99655.72;;;1.92;100
70015;BME280;57358;51.094;6.760;2024-01-15T05:34:47;99644.16;;;1.78;100
70015;BME280;57358;51.094;6.760;2024-01-15T05:39:47;99656.09;;;1.8;100
70015;BME280;57358;51.094;6.760;2024-01-15T05:44:47;99654.49;;;1.76;100
70015;BME280;57358;51.094;6.760;2024-01-15T05:49:47;99661.08;;;1.85;100
70015;BME280;57358;51.094;6.760;2024-01-15T05:54:47;99658.18000000001;;;1.86;100
70015;BME280;57358;51.094;6.760;2024-01-15T05:59:47;99658.69;;;1.91;100
70015;BME280;57358;51.094;6.760;2024-01-15T06:04:47;99638.67;;;1.86;100
70015;BME280;57358;51.094;6.760;2024-01-15T06:09:47;99660.29999999999;;;1.99;100
70015;BME280;57358;51.094;6.760;2024-01-15T06:14:47;99665.7;;;2.1;100
70015;BME280;57358;51.094;6.760;2024-01-15T06:19:47;99636.06;;;2.13;100
70015;BME280;57358;51.094;6.760;2024-01-15T06:24:47;99627.95;;;2.16;100
70015;BME280;57358;51.094;6.760;2024-01-15T06:29:47;99624.72;;;2.2;100
70015;BME280;57358;51.094;6.760;2024-01-15T06:34:47;99610.24;;;2.13;100
70015;BME280;57358;51.094;6.760;2024-01-15T06:39:47;99597.88;;;2.04;100
70015;BME280;57358;51.094;6.760;2024-01-15T06:44:47;99612.67;;;1.99;100
70015;BME280;57358;51.094;6.760;2024-01-15T06:49:47;99632.06999999999;;;1.94;100
70015;BME280;57358;51.094;6.760;2024-01-15T06:54:47;99634.09;;;1.81;100
70015;BME280;57358;51.094;6.760;2024-01-15T06:59:47;99666.43000000001;;;1.95;100
70015;BME280;57358;51.094;6.760;2024-01-15T07:04:47;99674.75;;;1.96;100
70015;BME280;57358;51.094;6.760;2024-01-15T07:09:47;99672.6;;;1.97;100
70015;BME280;57358;51.094;6.760;2024-01-15T07:14:47;99673.03;;;2.04;100
70015;BME280;57358;51.094;6.760;2024-01-15T07:19:47;99663.61;;;2.03;100
70015;BME280;57358;51.094;6.760;2024-01-15T07:24:47;99665.52;;;2.03;100
70015;BME280;57358;51.094;6.760;2024-01-15T07:29:47;99667.16;;;2.04;100
70015;BME280;57358;51.094;6.760;2024-01-15T07:34:47;99655.19;;;2.05;100
70015;BME280;57358;51.094;6.760;2024-01-15T07:39:47;99621.2;;;1.94;100
70015;BME280;57358;51.094;6.760;2024-01-15T07:44:47;99646.75;;;2.09;100
70015;BME280;57358;51.094;6.760;2024-01-15T07:49:47;99632.93;;;2.12;100
70015;BME280;57358;51.094;6.760;2024-01-15T07:54:47;99634.38;;;2.17;100
70015;BME280;57358;51.094;6.760;2024-01-15T07:59:47;99622.54000000001;;;2.24;100
70015;BME280;57358;51.094;6.760;2024-01-15T08:04:47;99601.75;;;2.25;100
70015;BME280;57358;51.094;6.760;2024-01-15T08:09:47;99563.79;;;2.17;100
70015;BME280;57358;51.094;6.760;2024-01-15T08:14:47;99574.98000000001;;;2.35;100
70015;BME280;57358;51.094;6.760;2024-01-15T08:19:47;99560.22;;;2.43;100
70015;BME280;57358;51.094;6.760;2024-01-15T08:24:47;99526.06;;;2.23;100
70015;BME280;57358;51.094;6.760;2024-01-15T08:29:47;99546.33;;;2.23;100
70015;BME280;57358;51.094;6.760;2024-01-15T08:34:47;99539.81;;;2.09;100
70015;BME280;57358;51.094;6.760;2024-01-15T08:39:47;99558.78;;;2.01;100
70015;BME280;57358;51.094;6.760;2024-01-15T08:44:47;99576.83;;;1.96;100
70015;BME280;57358;51.094;6.760;2024-01-15T08:49:47;99593.02;;;1.98;100
70015;BME280;57358;51.094;6.760;2024-01-15T08:54:47;99567.97;;;1.77;100
70015;BME280;57358;51.094;6.760;2024-01-15T08:59:47;99613.85;;;1.89;100
70015;BME280;57358;51.094;6.760;2024-01-15T09:04:47;99624.72;;;1.91;100
70015;BME280;57358;51.094;6.760;2024-01-15T09:09:47;99643.56;;;1.92;100
70015;BME280;57358;51.094;6.760;2024-01-15T09:14:47;99652.34;;;1.88;100
70015;BME280;57358;51.094;6.760;2024-01-15T09:19:47;99664.86;;;1.88;100
70015;BME280;57358;51.094;6.760;2024-01-15T09:24:47;99680.08;;;1.94;100
70015;BME280;57358;51.094;6.760;2024-01-15T09:29:47;99690.11;;;1.99;100
70015;BME280;57358;51.094;6.760;2024-01-15T09:34:47;99679.12;;;1.9;100
70015;BME280;57358;51.094;6.760;2024-01-15T09:39:47;99678.19;;;1.74;100
70015;BME280;57358;51.094;6.760;2024-01-15T09:44:47;99709.56999999999;;;1.93;100
70015;BME280;57358;51.094;6.760;2024-01-15T09:49:47;99717.44;;;2;100
70015;BME280;57358;51.094;6.760;2024-01-15T09:54:47;99719.44;;;1.98;100
70015;BME280;57358;51.094;6.760;2024-01-15T09:59:47;99697.74;;;1.94;100
70015;BME280;57358;51.094;6.760;2024-01-15T10:04:47;99714.26;;;2.08;100
70015;BME280;57358;51.094;6.760;2024-01-15T10:09:47;99715.55;;;2.09;100
70015;BME280;57358;51.094;6.760;2024-01-15T10:14:47;99716.42;;;2.11;100
70015;BME280;57358;51.094;6.760;2024-01-15T10:19:47;99722.88;;;2.14;100
70015;BME280;57358;51.094;6.760;2024-01-15T10:24:47;99725.39;;;2.17;100
70015;BME280;57358;51.094;6.760;2024-01-15T10:29:47;99725.03;;;2.18;100
70015;BME280;57358;51.094;6.760;2024-01-15T10:34:47;99721;;;2.18;100
70015;BME280;57358;51.094;6.760;2024-01-15T10:39:47;99710.79999999999;;;2.17;100
70015;BME280;57358;51.094;6.760;2024-01-15T10:44:47;99704.40999999999;;;2.19;100
70015;BME280;57358;51.094;6.760;2024-01-15T10:49:47;99721.51;;;2.38;100
70015;BME280;57358;51.094;6.760;2024-01-15T10:54:47;99719.05;;;2.42;100
70015;BME280;57358;51.094;6.760;2024-01-15T10:59:47;99712.72;;;2.45;100
70015;BME280;57358;51.094;6.760;2024-01-15T11:04:47;99693.14;;;2.57;100
70015;BME280;57358;51.094;6.760;2024-01-15T11:09:47;99702.81;;;2.78;100
70015;BME280;57358;51.094;6.760;2024-01-15T11:14:47;99678.75;;;2.85;100
70015;BME280;57358;51.094;6.760;2024-01-15T11:19:47;99651.39;;;2.91;100
70015;BME280;57358;51.094;6.760;2024-01-15T11:24:47;99622.43999999999;;;2.99;100
70015;BME280;57358;51.094;6.760;2024-01-15T11:29:47;99580.52;;;2.8;100
70015;BME280;57358;51.094;6.760;2024-01-15T11:34:51;99578.88;;;2.99;100
70015;BME280;57358;51.094;6.760;2024-01-15T11:39:47;99542.26999999999;;;2.94;100
70015;BME280;57358;51.094;6.760;2024-01-15T11:44:47;99522.43999999999;;;2.83;100
70015;BME280;57358;51.094;6.760;2024-01-15T11:49:53;99541.94;;;3.08;100
70015;BME280;57358;51.094;6.760;2024-01-15T11:54:48;99507.51000000001;;;3.39;100
70015;BME280;57358;51.094;6.760;2024-01-15T11:59:47;99483.18000000001;;;3.59;100
70015;BME280;57358;51.094;6.760;2024-01-15T12:04:47;99442.88;;;3.73;100
70015;BME280;57358;51.094;6.760;2024-01-15T12:09:47;99416.22;;;3.63;100
70015;BME280;57358;51.094;6.760;2024-01-15T12:14:47;99391.52;;;3.45;100
70015;BME280;57358;51.094;6.760;2024-01-15T12:19:47;99377.91;;;3.26;100
70015;BME280;57358;51.094;6.760;2024-01-15T12:24:47;99427.81;;;3.44;100
70015;BME280;57358;51.094;6.760;2024-01-15T12:29:47;99358.29;;;3.25;100
70015;BME280;57358;51.094;6.760;2024-01-15T12:34:48;99390.59;;;3.39;100
70015;BME280;57358;51.094;6.760;2024-01-15T12:39:47;99376.06;;;3.18;100
70015;BME280;57358;51.094;6.760;2024-01-15T12:44:47;99392.74;;;3.14;100
70015;BME280;57358;51.094;6.760;2024-01-15T12:49:47;99373.99;;;2.96;100
70015;BME280;57358;51.094;6.760;2024-01-15T12:54:47;99385.97;;;3;100
70015;BME280;57358;51.094;6.760;2024-01-15T12:59:48;99406.31;;;3.08;100
70015;BME280;57358;51.094;6.760;2024-01-15T13:04:47;99392.81;;;3.16;100
70015;BME280;57358;51.094;6.760;2024-01-15T13:09:47;99385.70999999999;;;3.19;100
70015;BME280;57358;51.094;6.760;2024-01-15T13:14:47;99371.11;;;3.17;100
70015;BME280;57358;51.094;6.760;2024-01-15T13:19:47;99370.28;;;3.11;100
70015;BME280;57358;51.094;6.760;2024-01-15T13:24:47;99389.62;;;3.18;100
70015;BME280;57358;51.094;6.760;2024-01-15T13:29:47;99404.5;;;3.18;100
70015;BME280;57358;51.094;6.760;2024-01-15T13:34:47;99405.97;;;3.16;100
70015;BME280;57358;51.094;6.760;2024-01-15T13:39:47;99423.15999999999;;;3.14;100
70015;BME280;57358;51.094;6.760;2024-01-15T13:44:47;99413;;;2.99;100
70015;BME280;57358;51.094;6.760;2024-01-15T13:49:47;99429.47;;;2.9;100
70015;BME280;57358;51.094;6.760;2024-01-15T13:54:47;99449.08;;;2.85;100
70015;BME280;57358;51.094;6.760;2024-01-15T13:59:47;99456.61;;;2.69;100
70015;BME280;57358;51.094;6.760;2024-01-15T14:04:47;99494.78;;;2.7;100
70015;BME280;57358;51.094;6.760;2024-01-15T14:09:47;99522.06999999999;;;2.76;100
70015;BME280;57358;51.094;6.760;2024-01-15T14:14:47;99525.31;;;2.66;100
70015;BME280;57358;51.094;6.760;2024-01-15T14:19:47;99555.66;;;2.73;100
70015;BME280;57358;51.094;6.760;2024-01-15T14:24:47;99559.17;;;2.85;100
70015;BME280;57358;51.094;6.760;2024-01-15T14:29:47;99568.26999999999;;;3.01;100
70015;BME280;57358;51.094;6.760;2024-01-15T14:34:47;99532.29;;;2.93;100
70015;BME280;57358;51.094;6.760;2024-01-15T14:39:47;99522.83;;;2.83;100
70015;BME280;57358;51.094;6.760;2024-01-15T14:44:47;99517.98999999999;;;2.74;100
70015;BME280;57358;51.094;6.760;2024-01-15T14:49:47;99527.59;;;2.67;100
70015;BME280;57358;51.094;6.760;2024-01-15T14:54:47;99543.44;;;2.64;100
70015;BME280;57358;51.094;6.760;2024-01-15T14:59:47;99561.72;;;2.58;100
70015;BME280;57358;51.094;6.760;2024-01-15T15:04:47;99560.91;;;2.48;100
70015;BME280;57358;51.094;6.760;2024-01-15T15:09:47;99596.59;;;2.53;100
70015;BME280;57358;51.094;6.760;2024-01-15T15:14:47;99604.3;;;2.42;100
70015;BME280;57358;51.094;6.760;2024-01-15T15:19:47;99617.75;;;2.28;100
70015;BME280;57358;51.094;6.760;2024-01-15T15:24:47;99663.42;;;2.33;100
70015;BME280;57358;51.094;6.760;2024-01-15T15:29:47;99666.52;;;1.98;100
70015;BME280;57358;51.094;6.760;2024-01-15T15:34:47;99681.84;;;1.68;100
70015;BME280;57358;51.094;6.760;2024-01-15T15:39:47;99763;;;1.88;100
70015;BME280;57358;51.094;6.760;2024-01-15T15:44:47;99778.8;;;1.87;100
70015;BME280;57358;51.094;6.760;2024-01-15T15:49:47;99813.39;;;1.94;100
70015;BME280;57358;51.094;6.760;2024-01-15T15:54:47;99821.56;;;1.94;100
70015;BME280;57358;51.094;6.760;2024-01-15T15:59:47;99828.61;;;1.82;100
70015;BME280;57358;51.094;6.760;2024-01-15T16:04:47;99820.51;;;1.7;100
70015;BME280;57358;51.094;6.760;2024-01-15T16:09:47;99851.98000000001;;;1.79;100
70015;BME280;57358;51.094;6.760;2024-01-15T16:14:47;99856.97;;;1.84;100
70015;BME280;57358;51.094;6.760;2024-01-15T16:19:47;99867.61;;;1.86;100
70015;BME280;57358;51.094;6.760;2024-01-15T16:24:47;99863.98000000001;;;1.76;100
70015;BME280;57358;51.094;6.760;2024-01-15T16:29:47;99869.54;;;1.68;100
70015;BME280;57358;51.094;6.760;2024-01-15T16:34:47;99880.16;;;1.6;100
70015;BME280;57358;51.094;6.760;2024-01-15T16:39:47;99905.45;;;1.65;100
70015;BME280;57358;51.094;6.760;2024-01-15T16:44:47;99917.7;;;1.71;100
70015;BME280;57358;51.094;6.760;2024-01-15T16:49:47;99913.76000000001;;;1.64;100
70015;BME280;57358;51.094;6.760;2024-01-15T16:54:47;99922.08;;;1.62;100
70015;BME280;57358;51.094;6.760;2024-01-15T16:59:47;99925.37;;;1.56;100
70015;BME280;57358;51.094;6.760;2024-01-15T17:04:47;99922.6;;;1.48;100
70015;BME280;57358;51.094;6.760;2024-01-15T17:09:47;99943.34;;;1.57;100
70015;BME280;57358;51.094;6.760;2024-01-15T17:14:47;99932.79;;;1.49;100
70015;BME280;57358;51.094;6.760;2024-01-15T17:19:47;99925.05;;;1.41;100
70015;BME280;57358;51.094;6.760;2024-01-15T17:24:47;99946.36;;;1.47;100
70015;BME280;57358;51.094;6.760;2024-01-15T17:29:47;99946.56;;;1.48;100
70015;BME280;57358;51.094;6.760;2024-01-15T17:34:47;99944.34;;;1.44;100
70015;BME280;57358;51.094;6.760;2024-01-15T17:39:47;99946.01;;;1.36;100
70015;BME280;57358;51.094;6.760;2024-01-15T17:44:47;99969.65;;;1.38;100
70015;BME280;57358;51.094;6.760;2024-01-15T17:49:47;99989.95;;;1.52;100
70015;BME280;57358;51.094;6.760;2024-01-15T17:54:47;99987.83;;;1.61;100
70015;BME280;57358;51.094;6.760;2024-01-15T17:59:47;99993.52;;;1.69;100
70015;BME280;57358;51.094;6.760;2024-01-15T18:04:47;99975.83;;;1.67;100
70015;BME280;57358;51.094;6.760;2024-01-15T18:09:47;99964.37;;;1.71;100
70015;BME280;57358;51.094;6.760;2024-01-15T18:14:47;99966.33;;;1.84;100
70015;BME280;57358;51.094;6.760;2024-01-15T18:19:47;99920.83;;;1.71;100
70015;BME280;57358;51.094;6.760;2024-01-15T18:24:47;99923.51999999999;;;1.75;100
70015;BME280;57358;51.094;6.760;2024-01-15T18:29:47;99940.81;;;1.85;100
70015;BME280;57358;51.094;6.760;2024-01-15T18:34:47;99920.34;;;1.77;100
70015;BME280;57358;51.094;6.760;2024-01-15T18:39:47;99901.92;;;1.6;100
70015;BME280;57358;51.094;6.760;2024-01-15T18:44:47;99926.9;;;1.6;100
70015;BME280;57358;51.094;6.760;2024-01-15T18:49:47;99892.33;;;1.28;100
70015;BME280;57358;51.094;6.760;2024-01-15T18:54:47;99883.12;;;1.17;100
70015;BME280;57358;51.094;6.760;2024-01-15T18:59:41;99924.37999999999;;;1.37;100
70015;BME280;57358;51.094;6.760;2024-01-15T19:04:39;99948.28;;;1.34;100
70015;BME280;57358;51.094;6.760;2024-01-15T19:09:39;99964.38;;;1.31;100
70015;BME280;57358;51.094;6.760;2024-01-15T19:14:39;99970.79;;;1.24;100
70015;BME280;57358;51.094;6.760;2024-01-15T19:19:39;100001;;;1.25;100
70015;BME280;57358;51.094;6.760;2024-01-15T19:24:39;100008.8;;;1.21;100
70015;BME280;57358;51.094;6.760;2024-01-15T19:29:39;100038;;;1.34;100
70015;BME280;57358;51.094;6.760;2024-01-15T19:34:39;100046.90000000001;;;1.41;100
70015;BME280;57358;51.094;6.760;2024-01-15T19:39:39;100045.2;;;1.43;100
70015;BME280;57358;51.094;6.760;2024-01-15T19:44:39;100040.7;;;1.4;100
70015;BME280;57358;51.094;6.760;2024-01-15T19:49:39;100056.7;;;1.42;100
70015;BME280;57358;51.094;6.760;2024-01-15T19:54:39;100058.8;;;1.53;100
70015;BME280;57358;51.094;6.760;2024-01-15T19:59:39;100015;;;1.33;100
70015;BME280;57358;51.094;6.760;2024-01-15T20:04:39;100045.2;;;1.4;100
70015;BME280;57358;51.094;6.760;2024-01-15T20:09:39;100059.2;;;1.49;100
70015;BME280;57358;51.094;6.760;2024-01-15T20:14:39;100056.1;;;1.47;100
70015;BME280;57358;51.094;6.760;2024-01-15T20:19:39;100066.2;;;1.53;100
70015;BME280;57358;51.094;6.760;2024-01-15T20:24:39;100064.59999999999;;;1.49;100
70015;BME280;57358;51.094;6.760;2024-01-15T20:29:39;100057.7;;;1.38;100
70015;BME280;57358;51.094;6.760;2024-01-15T20:34:39;100057.9;;;1.27;100
70015;BME280;57358;51.094;6.760;2024-01-15T20:39:39;100078.09999999999;;;1.25;100
70015;BME280;57358;51.094;6.760;2024-01-15T20:44:39;100097;;;1.25;100
70015;BME280;57358;51.094;6.760;2024-01-15T20:49:39;100091.2;;;1.17;100
70015;BME280;57358;51.094;6.760;2024-01-15T20:54:39;100106;;;1.13;100
70015;BME280;57358;51.094;6.760;2024-01-15T20:59:39;100123.1;;;1.15;100
70015;BME280;57358;51.094;6.760;2024-01-15T21:04:39;100116.2;;;1.13;100
70015;BME280;57358;51.094;6.760;2024-01-15T21:09:39;100114.20000000001;;;1.06;100
70015;BME280;57358;51.094;6.760;2024-01-15T21:14:39;100116;;;1;100
70015;BME280;57358;51.094;6.760;2024-01-15T21:19:39;100142.1;;;1.12;100
70015;BME280;57358;51.094;6.760;2024-01-15T21:24:39;100154.1;;;1.11;100
70015;BME280;57358;51.094;6.760;2024-01-15T21:29:39;100151.9;;;1.18;100
70015;BME280;57358;51.094;6.760;2024-01-15T21:34:39;100168.4;;;1.13;100
70015;BME280;57358;51.094;6.760;2024-01-15T21:39:39;100188.9;;;1.22;100
70015;BME280;57358;51.094;6.760;2024-01-15T21:44:39;100196.90000000001;;;1.36;100
70015;BME280;57358;51.094;6.760;2024-01-15T21:49:39;100208.90000000001;;;1.45;100
70015;BME280;57358;51.094;6.760;2024-01-15T21:54:39;100202.59999999999;;;1.51;100
70015;BME280;57358;51.094;6.760;2024-01-15T21:59:39;100202.09999999999;;;1.51;100
70015;BME280;57358;51.094;6.760;2024-01-15T22:04:39;100183.8;;;1.43;100
70015;BME280;57358;51.094;6.760;2024-01-15T22:09:39;100212.59999999999;;;1.63;100
70015;BME280;57358;51.094;6.760;2024-01-15T22:14:39;100207.5;;;1.62;100
70015;BME280;57358;51.094;6.760;2024-01-15T22:19:39;100211.2;;;1.64;100
70015;BME280;57358;51.094;6.760;2024-01-15T22:24:39;100209.90000000001;;;1.67;100
70015;BME280;57358;51.094;6.760;2024-01-15T22:29:39;100215.9;;;1.68;100
70015;BME280;57358;51.094;6.760;2024-01-15T22:34:39;100220.5;;;1.72;100
70015;BME280;57358;51.094;6.760;2024-01-15T22:39:39;100216.2;;;1.72;100
70015;BME280;57358;51.094;6.760;2024-01-15T22:44:39;100222.1;;;1.73;100
70015;BME280;57358;51.094;6.760;2024-01-15T22:49:39;100215.3;;;1.69;100
70015;BME280;57358;51.094;6.760;2024-01-15T22:54:39;100215.59999999999;;;1.56;100
70015;BME280;57358;51.094;6.760;2024-01-15T22:59:39;100229.8;;;1.43;100
70015;BME280;57358;51.094;6.760;2024-01-15T23:04:39;100253.59999999999;;;1.38;100
70015;BME280;57358;51.094;6.760;2024-01-15T23:09:40;100256.8;;;1.34;100
70015;BME280;57358;51.094;6.760;2024-01-15T23:14:39;100267.4;;;1.29;100
70015;BME280;57358;51.094;6.760;2024-01-15T23:19:39;100274.90000000001;;;1.23;100
70015;BME280;57358;51.094;6.760;2024-01-15T23:24:41;100305.5;;;1.45;100
70015;BME280;57358;51.094;6.760;2024-01-15T23:29:39;100302.20000000001;;;1.52;100
70015;BME280;57358;51.094;6.760;2024-01-15T23:34:39;100291.8;;;1.5;100
70015;BME280;57358;51.094;6.760;2024-01-15T23:39:39;100306.1;;;1.59;100
70015;BME280;57358;51.094;6.760;2024-01-15T23:44:39;100307;;;1.63;100
70015;BME280;57358;51.094;6.760;2024-01-15T23:49:39;100301.09999999999;;;1.67;100
70015;BME280;57358;51.094;6.760;2024-01-15T23:54:39;100301.2;;;1.7;100
70015;BME280;57358;51.094;6.760;2024-01-15T23:59:39;100296.6;;;1.67;100
